sensor_id;sensor_type;location;lat;lon;timestamp;pressure;altitude;pressure_sealevel;temperature
20736;BMP180;10528;52.124;5.196;2022-09-03T00:00:27;101119.00;;;24.60
20736;BMP180;10528;52.124;5.196;2022-09-03T00:03:23;101118.00;;;24.50
20736;BMP180;10528;52.124;5.196;2022-09-03T00:06:15;101120.00;;;24.50
20736;BMP180;10528;52.124;5.196;2022-09-03T00:09:02;101117.00;;;24.50
20736;BMP180;10528;52.124;5.196;2022-09-03T00:11:45;101110.00;;;24.50
20736;BMP180;10528;52.124;5.196;2022-09-03T00:14:54;101115.00;;;24.50
20736;BMP180;10528;52.124;5.196;2022-09-03T00:17:30;101109.00;;;24.50
20736;BMP180;10528;52.124;5.196;2022-09-03T00:20:05;101105.00;;;24.40
20736;BMP180;10528;52.124;5.196;2022-09-03T00:22:39;101112.00;;;24.40
20736;BMP180;10528;52.124;5.196;2022-09-03T00:25:14;101104.00;;;24.40
20736;BMP180;10528;52.124;5.196;2022-09-03T00:27:47;101099.00;;;24.40
20736;BMP180;10528;52.124;5.196;2022-09-03T00:30:17;101111.00;;;24.30
20736;BMP180;10528;52.124;5.196;2022-09-03T00:36:34;101100.00;;;24.20
20736;BMP180;10528;52.124;5.196;2022-09-03T00:38:37;101086.00;;;24.20
20736;BMP180;10528;52.124;5.196;2022-09-03T00:41:08;101091.00;;;24.10
20736;BMP180;10528;52.124;5.196;2022-09-03T00:50:28;101093.00;;;24.00
20736;BMP180;10528;52.124;5.196;2022-09-03T00:53:15;101099.00;;;24.00
20736;BMP180;10528;52.124;5.196;2022-09-03T00:56:12;101095.00;;;24.00
20736;BMP180;10528;52.124;5.196;2022-09-03T01:05:10;101079.00;;;23.90
20736;BMP180;10528;52.124;5.196;2022-09-03T01:08:06;101089.00;;;23.90
20736;BMP180;10528;52.124;5.196;2022-09-03T01:11:23;101099.00;;;23.90
20736;BMP180;10528;52.124;5.196;2022-09-03T01:17:15;101100.00;;;23.90
20736;BMP180;10528;52.124;5.196;2022-09-03T01:29:19;101114.00;;;23.90
20736;BMP180;10528;52.124;5.196;2022-09-03T01:31:37;101105.00;;;23.90
20736;BMP180;10528;52.124;5.196;2022-09-03T01:40:42;101110.00;;;23.80
20736;BMP180;10528;52.124;5.196;2022-09-03T01:43:43;101104.00;;;23.80
20736;BMP180;10528;52.124;5.196;2022-09-03T01:46:25;101105.00;;;23.80
20736;BMP180;10528;52.124;5.196;2022-09-03T01:49:28;101099.00;;;23.90
20736;BMP180;10528;52.124;5.196;2022-09-03T01:58:22;101114.00;;;23.80
20736;BMP180;10528;52.124;5.196;2022-09-03T02:00:58;101107.00;;;23.80
20736;BMP180;10528;52.124;5.196;2022-09-03T02:03:37;101113.00;;;23.80
20736;BMP180;10528;52.124;5.196;2022-09-03T02:06:09;101106.00;;;23.80
20736;BMP180;10528;52.124;5.196;2022-09-03T02:08:38;101096.00;;;23.80
20736;BMP180;10528;52.124;5.196;2022-09-03T02:11:08;101092.00;;;23.80
20736;BMP180;10528;52.124;5.196;2022-09-03T02:13:44;101102.00;;;23.80
20736;BMP180;10528;52.124;5.196;2022-09-03T02:16:22;101094.00;;;23.80
20736;BMP180;10528;52.124;5.196;2022-09-03T02:18:57;101085.00;;;23.70
20736;BMP180;10528;52.124;5.196;2022-09-03T02:21:37;101096.00;;;23.70
20736;BMP180;10528;52.124;5.196;2022-09-03T02:24:07;101088.00;;;23.70
20736;BMP180;10528;52.124;5.196;2022-09-03T02:26:35;101091.00;;;23.70
20736;BMP180;10528;52.124;5.196;2022-09-03T02:29:03;101099.00;;;23.70
20736;BMP180;10528;52.124;5.196;2022-09-03T02:31:30;101091.00;;;23.70
20736;BMP180;10528;52.124;5.196;2022-09-03T02:33:57;101096.00;;;23.60
20736;BMP180;10528;52.124;5.196;2022-09-03T02:36:34;101094.00;;;23.60
20736;BMP180;10528;52.124;5.196;2022-09-03T02:39:01;101091.00;;;23.60
20736;BMP180;10528;52.124;5.196;2022-09-03T02:41:28;101086.00;;;23.50
20736;BMP180;10528;52.124;5.196;2022-09-03T02:44:14;101088.00;;;23.50
20736;BMP180;10528;52.124;5.196;2022-09-03T02:47:05;101078.00;;;23.40
20736;BMP180;10528;52.124;5.196;2022-09-03T02:49:33;101083.00;;;23.50
20736;BMP180;10528;52.124;5.196;2022-09-03T02:52:06;101086.00;;;23.40
20736;BMP180;10528;52.124;5.196;2022-09-03T02:54:39;101085.00;;;23.40
20736;BMP180;10528;52.124;5.196;2022-09-03T02:57:09;101080.00;;;23.40
20736;BMP180;10528;52.124;5.196;2022-09-03T02:59:36;101084.00;;;23.40
20736;BMP180;10528;52.124;5.196;2022-09-03T03:02:03;101078.00;;;23.30
20736;BMP180;10528;52.124;5.196;2022-09-03T03:04:31;101073.00;;;23.40
20736;BMP180;10528;52.124;5.196;2022-09-03T03:06:58;101071.00;;;23.30
20736;BMP180;10528;52.124;5.196;2022-09-03T03:09:25;101081.00;;;23.30
20736;BMP180;10528;52.124;5.196;2022-09-03T03:11:52;101080.00;;;23.30
20736;BMP180;10528;52.124;5.196;2022-09-03T03:14:21;101071.00;;;23.30
20736;BMP180;10528;52.124;5.196;2022-09-03T03:16:49;101075.00;;;23.30
20736;BMP180;10528;52.124;5.196;2022-09-03T03:19:17;101064.00;;;23.20
20736;BMP180;10528;52.124;5.196;2022-09-03T03:21:44;101076.00;;;23.20
20736;BMP180;10528;52.124;5.196;2022-09-03T03:24:11;101075.00;;;23.30
20736;BMP180;10528;52.124;5.196;2022-09-03T03:26:37;101076.00;;;23.20
20736;BMP180;10528;52.124;5.196;2022-09-03T03:29:04;101059.00;;;23.20
20736;BMP180;10528;52.124;5.196;2022-09-03T03:31:32;101070.00;;;23.20
20736;BMP180;10528;52.124;5.196;2022-09-03T03:34:02;101069.00;;;23.20
20736;BMP180;10528;52.124;5.196;2022-09-03T03:36:32;101068.00;;;23.20
20736;BMP180;10528;52.124;5.196;2022-09-03T03:39:00;101074.00;;;23.20
20736;BMP180;10528;52.124;5.196;2022-09-03T03:41:30;101076.00;;;23.20
20736;BMP180;10528;52.124;5.196;2022-09-03T03:44:01;101074.00;;;23.20
20736;BMP180;10528;52.124;5.196;2022-09-03T03:46:32;101076.00;;;23.20
20736;BMP180;10528;52.124;5.196;2022-09-03T03:48:59;101080.00;;;23.20
20736;BMP180;10528;52.124;5.196;2022-09-03T03:51:27;101075.00;;;23.20
20736;BMP180;10528;52.124;5.196;2022-09-03T03:53:56;101084.00;;;23.20
20736;BMP180;10528;52.124;5.196;2022-09-03T03:56:27;101077.00;;;23.10
20736;BMP180;10528;52.124;5.196;2022-09-03T03:58:55;101069.00;;;23.10
20736;BMP180;10528;52.124;5.196;2022-09-03T04:01:25;101081.00;;;23.10
20736;BMP180;10528;52.124;5.196;2022-09-03T04:03:55;101087.00;;;23.10
20736;BMP180;10528;52.124;5.196;2022-09-03T04:06:22;101080.00;;;23.10
20736;BMP180;10528;52.124;5.196;2022-09-03T04:08:50;101077.00;;;23.10
20736;BMP180;10528;52.124;5.196;2022-09-03T04:11:21;101073.00;;;23.10
20736;BMP180;10528;52.124;5.196;2022-09-03T04:13:50;101076.00;;;23.00
20736;BMP180;10528;52.124;5.196;2022-09-03T04:16:27;101077.00;;;23.00
20736;BMP180;10528;52.124;5.196;2022-09-03T04:18:55;101073.00;;;23.00
20736;BMP180;10528;52.124;5.196;2022-09-03T04:21:26;101079.00;;;23.10
20736;BMP180;10528;52.124;5.196;2022-09-03T04:23:55;101073.00;;;23.00
20736;BMP180;10528;52.124;5.196;2022-09-03T04:26:29;101067.00;;;23.00
20736;BMP180;10528;52.124;5.196;2022-09-03T04:29:04;101067.00;;;22.90
20736;BMP180;10528;52.124;5.196;2022-09-03T04:31:32;101075.00;;;22.90
20736;BMP180;10528;52.124;5.196;2022-09-03T04:33:59;101065.00;;;22.90
20736;BMP180;10528;52.124;5.196;2022-09-03T04:36:29;101069.00;;;22.80
20736;BMP180;10528;52.124;5.196;2022-09-03T04:38:59;101080.00;;;22.80
20736;BMP180;10528;52.124;5.196;2022-09-03T04:41:30;101071.00;;;22.80
20736;BMP180;10528;52.124;5.196;2022-09-03T04:43:59;101072.00;;;22.80
20736;BMP180;10528;52.124;5.196;2022-09-03T04:46:28;101072.00;;;22.80
20736;BMP180;10528;52.124;5.196;2022-09-03T04:48:59;101078.00;;;22.80
20736;BMP180;10528;52.124;5.196;2022-09-03T04:51:27;101073.00;;;22.80
20736;BMP180;10528;52.124;5.196;2022-09-03T04:53:57;101078.00;;;22.80
20736;BMP180;10528;52.124;5.196;2022-09-03T04:56:30;101071.00;;;22.80
20736;BMP180;10528;52.124;5.196;2022-09-03T04:59:04;101076.00;;;22.80
20736;BMP180;10528;52.124;5.196;2022-09-03T05:01:34;101073.00;;;22.80
20736;BMP180;10528;52.124;5.196;2022-09-03T05:04:01;101081.00;;;22.80
20736;BMP180;10528;52.124;5.196;2022-09-03T05:06:30;101083.00;;;22.80
20736;BMP180;10528;52.124;5.196;2022-09-03T05:08:57;101071.00;;;22.70
20736;BMP180;10528;52.124;5.196;2022-09-03T05:11:26;101074.00;;;22.70
20736;BMP180;10528;52.124;5.196;2022-09-03T05:13:57;101072.00;;;22.70
20736;BMP180;10528;52.124;5.196;2022-09-03T05:16:26;101078.00;;;22.60
20736;BMP180;10528;52.124;5.196;2022-09-03T05:18:56;101079.00;;;22.60
20736;BMP180;10528;52.124;5.196;2022-09-03T05:21:26;101070.00;;;22.60
20736;BMP180;10528;52.124;5.196;2022-09-03T05:23:54;101070.00;;;22.60
20736;BMP180;10528;52.124;5.196;2022-09-03T05:26:28;101061.00;;;22.50
20736;BMP180;10528;52.124;5.196;2022-09-03T05:29:01;101068.00;;;22.50
20736;BMP180;10528;52.124;5.196;2022-09-03T05:31:30;101064.00;;;22.50
20736;BMP180;10528;52.124;5.196;2022-09-03T05:34:01;101061.00;;;22.50
20736;BMP180;10528;52.124;5.196;2022-09-03T05:36:32;101071.00;;;22.50
20736;BMP180;10528;52.124;5.196;2022-09-03T05:39:00;101068.00;;;22.50
20736;BMP180;10528;52.124;5.196;2022-09-03T05:41:28;101064.00;;;22.50
20736;BMP180;10528;52.124;5.196;2022-09-03T05:43:56;101068.00;;;22.50
20736;BMP180;10528;52.124;5.196;2022-09-03T05:46:28;101060.00;;;22.50
20736;BMP180;10528;52.124;5.196;2022-09-03T05:48:59;101069.00;;;22.50
20736;BMP180;10528;52.124;5.196;2022-09-03T05:51:29;101055.00;;;22.50
20736;BMP180;10528;52.124;5.196;2022-09-03T05:53:57;101064.00;;;22.60
20736;BMP180;10528;52.124;5.196;2022-09-03T05:56:27;101066.00;;;22.60
20736;BMP180;10528;52.124;5.196;2022-09-03T05:58:58;101067.00;;;22.60
20736;BMP180;10528;52.124;5.196;2022-09-03T06:01:30;101074.00;;;22.60
20736;BMP180;10528;52.124;5.196;2022-09-03T06:04:00;101072.00;;;22.60
20736;BMP180;10528;52.124;5.196;2022-09-03T06:06:30;101068.00;;;22.60
20736;BMP180;10528;52.124;5.196;2022-09-03T06:09:04;101078.00;;;22.70
20736;BMP180;10528;52.124;5.196;2022-09-03T06:11:34;101060.00;;;22.70
20736;BMP180;10528;52.124;5.196;2022-09-03T06:14:05;101066.00;;;22.70
20736;BMP180;10528;52.124;5.196;2022-09-03T06:16:39;101064.00;;;22.70
20736;BMP180;10528;52.124;5.196;2022-09-03T06:19:08;101062.00;;;22.70
20736;BMP180;10528;52.124;5.196;2022-09-03T06:21:38;101071.00;;;22.80
20736;BMP180;10528;52.124;5.196;2022-09-03T06:24:17;101069.00;;;22.80
20736;BMP180;10528;52.124;5.196;2022-09-03T06:26:46;101070.00;;;22.80
20736;BMP180;10528;52.124;5.196;2022-09-03T06:29:13;101075.00;;;22.90
20736;BMP180;10528;52.124;5.196;2022-09-03T06:31:41;101072.00;;;22.90
20736;BMP180;10528;52.124;5.196;2022-09-03T06:34:08;101066.00;;;23.00
20736;BMP180;10528;52.124;5.196;2022-09-03T06:36:35;101068.00;;;23.00
20736;BMP180;10528;52.124;5.196;2022-09-03T06:39:02;101067.00;;;23.10
20736;BMP180;10528;52.124;5.196;2022-09-03T06:41:30;101067.00;;;23.10
20736;BMP180;10528;52.124;5.196;2022-09-03T06:44:04;101069.00;;;23.20
20736;BMP180;10528;52.124;5.196;2022-09-03T06:46:34;101075.00;;;23.30
20736;BMP180;10528;52.124;5.196;2022-09-03T06:49:01;101068.00;;;23.30
20736;BMP180;10528;52.124;5.196;2022-09-03T06:51:31;101067.00;;;23.40
20736;BMP180;10528;52.124;5.196;2022-09-03T06:54:07;101070.00;;;23.50
20736;BMP180;10528;52.124;5.196;2022-09-03T06:56:37;101067.00;;;23.60
20736;BMP180;10528;52.124;5.196;2022-09-03T06:59:13;101079.00;;;23.60
20736;BMP180;10528;52.124;5.196;2022-09-03T07:01:42;101078.00;;;23.60
20736;BMP180;10528;52.124;5.196;2022-09-03T07:04:13;101076.00;;;23.70
20736;BMP180;10528;52.124;5.196;2022-09-03T07:06:44;101074.00;;;23.80
20736;BMP180;10528;52.124;5.196;2022-09-03T07:09:12;101078.00;;;23.80
20736;BMP180;10528;52.124;5.196;2022-09-03T07:11:42;101078.00;;;23.90
20736;BMP180;10528;52.124;5.196;2022-09-03T07:14:16;101077.00;;;23.90
20736;BMP180;10528;52.124;5.196;2022-09-03T07:16:44;101082.00;;;24.00
20736;BMP180;10528;52.124;5.196;2022-09-03T07:19:12;101075.00;;;24.10
20736;BMP180;10528;52.124;5.196;2022-09-03T07:21:41;101077.00;;;24.10
20736;BMP180;10528;52.124;5.196;2022-09-03T07:24:16;101082.00;;;24.10
20736;BMP180;10528;52.124;5.196;2022-09-03T07:26:43;101078.00;;;24.20
20736;BMP180;10528;52.124;5.196;2022-09-03T07:29:12;101078.00;;;24.20
20736;BMP180;10528;52.124;5.196;2022-09-03T07:31:42;101083.00;;;24.30
20736;BMP180;10528;52.124;5.196;2022-09-03T07:34:11;101083.00;;;24.30
20736;BMP180;10528;52.124;5.196;2022-09-03T07:36:45;101077.00;;;24.40
20736;BMP180;10528;52.124;5.196;2022-09-03T07:39:15;101075.00;;;24.40
20736;BMP180;10528;52.124;5.196;2022-09-03T07:41:45;101086.00;;;24.50
20736;BMP180;10528;52.124;5.196;2022-09-03T07:44:14;101089.00;;;24.50
20736;BMP180;10528;52.124;5.196;2022-09-03T07:46:42;101080.00;;;24.60
20736;BMP180;10528;52.124;5.196;2022-09-03T07:49:11;101083.00;;;24.60
20736;BMP180;10528;52.124;5.196;2022-09-03T07:51:38;101090.00;;;24.70
20736;BMP180;10528;52.124;5.196;2022-09-03T07:54:08;101091.00;;;24.70
20736;BMP180;10528;52.124;5.196;2022-09-03T07:56:38;101087.00;;;24.80
20736;BMP180;10528;52.124;5.196;2022-09-03T07:59:06;101096.00;;;24.90
20736;BMP180;10528;52.124;5.196;2022-09-03T08:01:34;101093.00;;;24.90
20736;BMP180;10528;52.124;5.196;2022-09-03T08:04:02;101091.00;;;25.00
20736;BMP180;10528;52.124;5.196;2022-09-03T08:06:35;101096.00;;;25.10
20736;BMP180;10528;52.124;5.196;2022-09-03T08:09:07;101093.00;;;25.10
20736;BMP180;10528;52.124;5.196;2022-09-03T08:11:38;101105.00;;;25.20
20736;BMP180;10528;52.124;5.196;2022-09-03T08:14:09;101103.00;;;25.20
20736;BMP180;10528;52.124;5.196;2022-09-03T08:16:43;101108.00;;;25.30
20736;BMP180;10528;52.124;5.196;2022-09-03T08:19:11;101101.00;;;25.20
20736;BMP180;10528;52.124;5.196;2022-09-03T08:21:39;101096.00;;;25.30
20736;BMP180;10528;52.124;5.196;2022-09-03T08:24:11;101104.00;;;25.40
20736;BMP180;10528;52.124;5.196;2022-09-03T08:26:41;101112.00;;;25.40
20736;BMP180;10528;52.124;5.196;2022-09-03T08:29:16;101115.00;;;25.50
20736;BMP180;10528;52.124;5.196;2022-09-03T08:31:43;101104.00;;;25.50
20736;BMP180;10528;52.124;5.196;2022-09-03T08:34:10;101101.00;;;25.60
20736;BMP180;10528;52.124;5.196;2022-09-03T08:36:39;101111.00;;;25.60
20736;BMP180;10528;52.124;5.196;2022-09-03T08:39:10;101102.00;;;25.70
20736;BMP180;10528;52.124;5.196;2022-09-03T08:44:56;101118.00;;;25.90
20736;BMP180;10528;52.124;5.196;2022-09-03T08:47:32;101109.00;;;25.90
20736;BMP180;10528;52.124;5.196;2022-09-03T08:53:17;101108.00;;;26.00
20736;BMP180;10528;52.124;5.196;2022-09-03T08:55:54;101116.00;;;26.10
20736;BMP180;10528;52.124;5.196;2022-09-03T08:58:26;101111.00;;;26.20
20736;BMP180;10528;52.124;5.196;2022-09-03T09:04:02;101110.00;;;26.30
20736;BMP180;10528;52.124;5.196;2022-09-03T09:06:58;101106.00;;;26.40
20736;BMP180;10528;52.124;5.196;2022-09-03T09:21:11;101113.00;;;26.70
20736;BMP180;10528;52.124;5.196;2022-09-03T09:23:48;101103.00;;;26.80
20736;BMP180;10528;52.124;5.196;2022-09-03T09:26:19;101105.00;;;26.90
20736;BMP180;10528;52.124;5.196;2022-09-03T09:29:04;101096.00;;;27.00
20736;BMP180;10528;52.124;5.196;2022-09-03T09:31:37;101109.00;;;27.10
20736;BMP180;10528;52.124;5.196;2022-09-03T09:34:07;101100.00;;;27.20
20736;BMP180;10528;52.124;5.196;2022-09-03T09:36:50;101101.00;;;27.30
20736;BMP180;10528;52.124;5.196;2022-09-03T09:39:18;101103.00;;;27.40
20736;BMP180;10528;52.124;5.196;2022-09-03T09:42:06;101118.00;;;27.50
20736;BMP180;10528;52.124;5.196;2022-09-03T09:44:39;101115.00;;;27.60
20736;BMP180;10528;52.124;5.196;2022-09-03T09:47:19;101108.00;;;27.70
20736;BMP180;10528;52.124;5.196;2022-09-03T09:49:56;101112.00;;;27.80
20736;BMP180;10528;52.124;5.196;2022-09-03T09:52:27;101107.00;;;28.00
20736;BMP180;10528;52.124;5.196;2022-09-03T09:55:14;101112.00;;;28.10
20736;BMP180;10528;52.124;5.196;2022-09-03T09:57:41;101110.00;;;28.20
20736;BMP180;10528;52.124;5.196;2022-09-03T10:00:12;101113.00;;;28.30
20736;BMP180;10528;52.124;5.196;2022-09-03T10:02:48;101122.00;;;28.40
20736;BMP180;10528;52.124;5.196;2022-09-03T10:05:26;101102.00;;;28.50
20736;BMP180;10528;52.124;5.196;2022-09-03T10:07:59;101119.00;;;28.70
20736;BMP180;10528;52.124;5.196;2022-09-03T10:10:28;101105.00;;;28.70
20736;BMP180;10528;52.124;5.196;2022-09-03T10:13:12;101111.00;;;28.80
20736;BMP180;10528;52.124;5.196;2022-09-03T10:16:02;101109.00;;;28.90
20736;BMP180;10528;52.124;5.196;2022-09-03T10:18:44;101109.00;;;28.90
20736;BMP180;10528;52.124;5.196;2022-09-03T10:21:48;101102.00;;;29.00
20736;BMP180;10528;52.124;5.196;2022-09-03T10:24:33;101106.00;;;29.10
20736;BMP180;10528;52.124;5.196;2022-09-03T10:27:09;101096.00;;;29.20
20736;BMP180;10528;52.124;5.196;2022-09-03T10:29:40;101096.00;;;29.30
20736;BMP180;10528;52.124;5.196;2022-09-03T10:35:30;101094.00;;;29.50
20736;BMP180;10528;52.124;5.196;2022-09-03T10:43:55;101090.00;;;29.60
20736;BMP180;10528;52.124;5.196;2022-09-03T10:46:39;101085.00;;;29.70
20736;BMP180;10528;52.124;5.196;2022-09-03T10:49:45;101087.00;;;29.80
20736;BMP180;10528;52.124;5.196;2022-09-03T10:52:54;101082.00;;;29.90
20736;BMP180;10528;52.124;5.196;2022-09-03T10:55:47;101084.00;;;29.90
20736;BMP180;10528;52.124;5.196;2022-09-03T10:58:35;101081.00;;;30.00
20736;BMP180;10528;52.124;5.196;2022-09-03T11:07:02;101085.00;;;30.20
20736;BMP180;10528;52.124;5.196;2022-09-03T11:10:25;101084.00;;;30.20
20736;BMP180;10528;52.124;5.196;2022-09-03T11:15:51;101079.00;;;30.30
20736;BMP180;10528;52.124;5.196;2022-09-03T11:18:24;101072.00;;;30.30
20736;BMP180;10528;52.124;5.196;2022-09-03T11:21:03;101067.00;;;30.30
20736;BMP180;10528;52.124;5.196;2022-09-03T11:23:50;101077.00;;;30.40
20736;BMP180;10528;52.124;5.196;2022-09-03T11:26:23;101075.00;;;30.50
20736;BMP180;10528;52.124;5.196;2022-09-03T11:29:08;101081.00;;;30.50
20736;BMP180;10528;52.124;5.196;2022-09-03T11:32:06;101071.00;;;30.50
20736;BMP180;10528;52.124;5.196;2022-09-03T11:34:49;101073.00;;;30.50
20736;BMP180;10528;52.124;5.196;2022-09-03T11:37:23;101070.00;;;30.50
20736;BMP180;10528;52.124;5.196;2022-09-03T11:40:11;101068.00;;;30.60
20736;BMP180;10528;52.124;5.196;2022-09-03T11:42:41;101073.00;;;30.60
20736;BMP180;10528;52.124;5.196;2022-09-03T11:45:33;101067.00;;;30.70
20736;BMP180;10528;52.124;5.196;2022-09-03T11:48:01;101067.00;;;30.70
20736;BMP180;10528;52.124;5.196;2022-09-03T11:50:32;101075.00;;;30.70
20736;BMP180;10528;52.124;5.196;2022-09-03T11:56:00;101071.00;;;30.60
20736;BMP180;10528;52.124;5.196;2022-09-03T11:58:39;101067.00;;;30.70
20736;BMP180;10528;52.124;5.196;2022-09-03T12:01:12;101074.00;;;30.70
20736;BMP180;10528;52.124;5.196;2022-09-03T12:03:58;101069.00;;;30.80
20736;BMP180;10528;52.124;5.196;2022-09-03T12:07:00;101069.00;;;30.90
20736;BMP180;10528;52.124;5.196;2022-09-03T12:18:09;101070.00;;;31.10
20736;BMP180;10528;52.124;5.196;2022-09-03T12:21:00;101063.00;;;31.10
20736;BMP180;10528;52.124;5.196;2022-09-03T12:26:13;101075.00;;;31.20
20736;BMP180;10528;52.124;5.196;2022-09-03T12:28:48;101077.00;;;31.20
20736;BMP180;10528;52.124;5.196;2022-09-03T12:31:21;101072.00;;;31.10
20736;BMP180;10528;52.124;5.196;2022-09-03T12:34:11;101072.00;;;31.10
20736;BMP180;10528;52.124;5.196;2022-09-03T12:36:41;101075.00;;;31.10
20736;BMP180;10528;52.124;5.196;2022-09-03T12:39:12;101071.00;;;31.20
20736;BMP180;10528;52.124;5.196;2022-09-03T12:42:02;101075.00;;;31.20
20736;BMP180;10528;52.124;5.196;2022-09-03T12:47:12;101068.00;;;31.30
20736;BMP180;10528;52.124;5.196;2022-09-03T12:50:09;101080.00;;;31.30
20736;BMP180;10528;52.124;5.196;2022-09-03T12:52:58;101068.00;;;31.30
20736;BMP180;10528;52.124;5.196;2022-09-03T12:58:12;101074.00;;;31.40
20736;BMP180;10528;52.124;5.196;2022-09-03T13:03:48;101069.00;;;31.40
20736;BMP180;10528;52.124;5.196;2022-09-03T13:06:23;101067.00;;;31.40
20736;BMP180;10528;52.124;5.196;2022-09-03T13:09:00;101071.00;;;31.50
20736;BMP180;10528;52.124;5.196;2022-09-03T13:11:33;101067.00;;;31.50
20736;BMP180;10528;52.124;5.196;2022-09-03T13:14:06;101060.00;;;31.60
20736;BMP180;10528;52.124;5.196;2022-09-03T13:34:29;101062.00;;;31.60
20736;BMP180;10528;52.124;5.196;2022-09-03T13:37:10;101069.00;;;31.60
20736;BMP180;10528;52.124;5.196;2022-09-03T13:39:48;101066.00;;;31.70
20736;BMP180;10528;52.124;5.196;2022-09-03T13:42:36;101053.00;;;31.70
20736;BMP180;10528;52.124;5.196;2022-09-03T13:45:27;101050.00;;;31.70
20736;BMP180;10528;52.124;5.196;2022-09-03T13:51:19;101052.00;;;31.60
20736;BMP180;10528;52.124;5.196;2022-09-03T14:00:08;101059.00;;;31.60
20736;BMP180;10528;52.124;5.196;2022-09-03T14:02:52;101060.00;;;31.60
20736;BMP180;10528;52.124;5.196;2022-09-03T14:08:19;101049.00;;;31.60
20736;BMP180;10528;52.124;5.196;2022-09-03T14:11:01;101058.00;;;31.60
20736;BMP180;10528;52.124;5.196;2022-09-03T14:19:51;101055.00;;;31.50
20736;BMP180;10528;52.124;5.196;2022-09-03T14:25:20;101057.00;;;31.50
20736;BMP180;10528;52.124;5.196;2022-09-03T14:27:48;101060.00;;;31.50
20736;BMP180;10528;52.124;5.196;2022-09-03T14:36:35;101059.00;;;31.50
20736;BMP180;10528;52.124;5.196;2022-09-03T14:39:29;101054.00;;;31.50
20736;BMP180;10528;52.124;5.196;2022-09-03T14:51:08;101059.00;;;31.30
20736;BMP180;10528;52.124;5.196;2022-09-03T14:54:29;101065.00;;;31.20
20736;BMP180;10528;52.124;5.196;2022-09-03T15:06:27;101066.00;;;31.20
20736;BMP180;10528;52.124;5.196;2022-09-03T15:09:21;101078.00;;;31.20
20736;BMP180;10528;52.124;5.196;2022-09-03T15:11:55;101065.00;;;31.20
20736;BMP180;10528;52.124;5.196;2022-09-03T15:14:40;101058.00;;;31.30
20736;BMP180;10528;52.124;5.196;2022-09-03T15:17:46;101062.00;;;31.30
20736;BMP180;10528;52.124;5.196;2022-09-03T15:20:47;101068.00;;;31.20
20736;BMP180;10528;52.124;5.196;2022-09-03T15:23:47;101069.00;;;31.30
20736;BMP180;10528;52.124;5.196;2022-09-03T15:29:59;101082.00;;;31.30
20736;BMP180;10528;52.124;5.196;2022-09-03T15:32:47;101076.00;;;31.30
20736;BMP180;10528;52.124;5.196;2022-09-03T15:35:53;101075.00;;;31.30
20736;BMP180;10528;52.124;5.196;2022-09-03T15:38:36;101080.00;;;31.30
20736;BMP180;10528;52.124;5.196;2022-09-03T15:41:20;101076.00;;;31.30
20736;BMP180;10528;52.124;5.196;2022-09-03T15:43:50;101078.00;;;31.30
20736;BMP180;10528;52.124;5.196;2022-09-03T15:46:51;101084.00;;;31.20
20736;BMP180;10528;52.124;5.196;2022-09-03T15:55:40;101070.00;;;31.20
20736;BMP180;10528;52.124;5.196;2022-09-03T15:58:43;101080.00;;;31.20
20736;BMP180;10528;52.124;5.196;2022-09-03T16:04:19;101072.00;;;31.30
20736;BMP180;10528;52.124;5.196;2022-09-03T16:07:09;101074.00;;;31.20
20736;BMP180;10528;52.124;5.196;2022-09-03T16:16:40;101082.00;;;31.20
20736;BMP180;10528;52.124;5.196;2022-09-03T16:18:58;101086.00;;;31.20
20736;BMP180;10528;52.124;5.196;2022-09-03T16:22:03;101087.00;;;31.20
20736;BMP180;10528;52.124;5.196;2022-09-03T16:27:31;101088.00;;;31.20
20736;BMP180;10528;52.124;5.196;2022-09-03T16:30:20;101083.00;;;31.20
20736;BMP180;10528;52.124;5.196;2022-09-03T16:39:01;101082.00;;;31.20
20736;BMP180;10528;52.124;5.196;2022-09-03T16:41:56;101080.00;;;31.20
20736;BMP180;10528;52.124;5.196;2022-09-03T16:48:14;101082.00;;;31.10
20736;BMP180;10528;52.124;5.196;2022-09-03T16:53:54;101075.00;;;31.10
20736;BMP180;10528;52.124;5.196;2022-09-03T16:56:58;101082.00;;;31.00
20736;BMP180;10528;52.124;5.196;2022-09-03T17:00:19;101081.00;;;31.00
20736;BMP180;10528;52.124;5.196;2022-09-03T17:06:26;101073.00;;;31.00
20736;BMP180;10528;52.124;5.196;2022-09-03T17:15:15;101093.00;;;30.90
20736;BMP180;10528;52.124;5.196;2022-09-03T17:18:31;101091.00;;;30.90
20736;BMP180;10528;52.124;5.196;2022-09-03T17:24:08;101094.00;;;30.90
20736;BMP180;10528;52.124;5.196;2022-09-03T17:27:31;101093.00;;;30.80
20736;BMP180;10528;52.124;5.196;2022-09-03T17:30:07;101093.00;;;30.80
20736;BMP180;10528;52.124;5.196;2022-09-03T17:41:49;101101.00;;;30.70
20736;BMP180;10528;52.124;5.196;2022-09-03T17:52:40;101117.00;;;30.60
20736;BMP180;10528;52.124;5.196;2022-09-03T17:55:23;101119.00;;;30.60
20736;BMP180;10528;52.124;5.196;2022-09-03T17:58:18;101126.00;;;30.60
20736;BMP180;10528;52.124;5.196;2022-09-03T18:03:48;101117.00;;;30.40
20736;BMP180;10528;52.124;5.196;2022-09-03T18:12:11;101134.00;;;30.20
20736;BMP180;10528;52.124;5.196;2022-09-03T18:14:49;101134.00;;;30.20
20736;BMP180;10528;52.124;5.196;2022-09-03T18:17:42;101141.00;;;30.10
20736;BMP180;10528;52.124;5.196;2022-09-03T18:20:13;101149.00;;;30.10
20736;BMP180;10528;52.124;5.196;2022-09-03T18:23:10;101150.00;;;30.00
20736;BMP180;10528;52.124;5.196;2022-09-03T18:26:11;101144.00;;;29.90
20736;BMP180;10528;52.124;5.196;2022-09-03T18:29:05;101155.00;;;29.80
20736;BMP180;10528;52.124;5.196;2022-09-03T18:31:51;101158.00;;;29.80
20736;BMP180;10528;52.124;5.196;2022-09-03T18:34:37;101164.00;;;29.70
20736;BMP180;10528;52.124;5.196;2022-09-03T18:37:26;101161.00;;;29.60
20736;BMP180;10528;52.124;5.196;2022-09-03T18:40:26;101168.00;;;29.50
20736;BMP180;10528;52.124;5.196;2022-09-03T18:44:02;101174.00;;;29.40
20736;BMP180;10528;52.124;5.196;2022-09-03T18:53:37;101183.00;;;29.20
20736;BMP180;10528;52.124;5.196;2022-09-03T18:56:37;101190.00;;;29.10
20736;BMP180;10528;52.124;5.196;2022-09-03T19:06:21;101197.00;;;28.80